Freckleton, United Kingdom
Current Conditions -  °F | °C
As of 3:50 PM on Sunday 23 Nov 2014 (Local Time) from EGGP Reporting Station
Few Clouds Few Clouds  
Wind Chill: 43°   Ceiling: Unl
Heat Index: 46°   Visibility: 6mi
Dew Point: 37°   Wind: 7mph
Humidity: 71%   Direction: 310°NW
Pressure: 30.06"   Gusts: NA
Location:  53.75°N, 2.86°W
Report Text: EGGP 231550Z 31006KT 9999 FEW032 08/03 Q1018
Loading
Personal Weather Stations






























Interactive Weather Map New forecast layout! Learn more

10-Day Weather Forecast

Advertisements
Track Severe Weather on mobile